Time;durP1;ratioP1;P1;durP2;ratioP2;P2;SDS_P1;SDS_P2;PMS_P1;PMS_P2;Temp;Humidity;BMP_temperature;BMP_pressure;BME280_temperature;BME280_humidity;BME280_pressure;Samples;Min_cycle;Max_cycle;Signal;HPM_P1;HPM_P2
2022/12/01 00:00:01;;;;;;;6.85;2.55;;;2.90;99.90;;;;;;5046385;28;20590;-82
2022/12/01 00:02:28;;;;;;;0.20;0.20;;;2.90;99.90;;;;;;5045944;28;20025;-83
2022/12/01 00:04:54;;;;;;;0.32;0.32;;;3.00;99.90;;;;;;5039076;28;20028;-84
2022/12/01 00:07:20;;;;;;;0.55;0.55;;;2.90;99.90;;;;;;5060892;28;20033;-84
2022/12/01 00:12:30;;;;;;;0.32;0.32;;;2.90;99.90;;;;;;5046585;28;20047;-83
2022/12/01 00:14:59;;;;;;;0.98;0.98;;;2.90;99.90;;;;;;5045878;28;20414;-82
2022/12/01 00:17:26;;;;;;;0.52;0.52;;;2.80;99.90;;;;;;5027732;28;20105;-83
2022/12/01 00:19:52;;;;;;;0.10;0.10;;;2.70;99.90;;;;;;5045416;28;20028;-82
2022/12/01 00:22:18;;;;;;;0.10;0.10;;;2.80;99.90;;;;;;5013380;28;20029;-84
2022/12/01 00:24:43;;;;;;;0.57;0.57;;;2.70;99.90;;;;;;5045502;28;20025;-84
2022/12/01 00:27:09;;;;;;;0.55;0.55;;;2.70;99.90;;;;;;5056772;28;20029;-86
2022/12/01 00:29:34;;;;;;;0.10;0.10;;;2.70;99.90;;;;;;5045797;28;20402;-86
2022/12/01 00:32:00;;;;;;;0.20;0.20;;;2.70;99.90;;;;;;5045780;28;20504;-85
2022/12/01 00:34:26;;;;;;;0.45;0.45;;;2.60;99.90;;;;;;5046777;28;20025;-85
2022/12/01 00:36:52;;;;;;;0.20;0.20;;;2.70;99.90;;;;;;5045607;28;20040;-85
2022/12/01 00:39:18;;;;;;;0.20;0.20;;;2.70;99.90;;;;;;5046813;28;20707;-85
2022/12/01 00:41:44;;;;;;;0.20;0.20;;;2.70;99.90;;;;;;5046539;28;20032;-85
2022/12/01 00:44:09;;;;;;;0.10;0.10;;;2.70;99.90;;;;;;5028118;28;20569;-84
2022/12/01 00:46:35;;;;;;;0.50;0.50;;;2.70;99.90;;;;;;5028423;28;20036;-84
2022/12/01 00:49:01;;;;;;;0.20;0.20;;;2.70;99.90;;;;;;5046155;28;20029;-84
2022/12/01 00:51:26;;;;;;;0.30;0.30;;;2.70;99.90;;;;;;5061863;28;20029;-84
2022/12/01 00:53:52;;;;;;;0.70;0.70;;;2.80;99.90;;;;;;5028392;28;20039;-85
2022/12/01 00:56:19;;;;;;;0.15;0.15;;;2.70;99.90;;;;;;5048406;28;20045;-86
2022/12/01 00:58:45;;;;;;;0.38;0.38;;;2.70;99.90;;;;;;5031780;28;20742;-84
2022/12/01 01:01:11;;;;;;;3.35;0.98;;;2.70;99.90;;;;;;5031380;28;20040;-82
2022/12/01 01:03:37;;;;;;;0.35;0.35;;;2.70;99.90;;;;;;5031600;28;20024;-88
2022/12/01 01:06:09;;;;;;;0.70;0.32;;;2.80;99.90;;;;;;5049764;28;20032;-91
2022/12/01 01:08:34;;;;;;;1.00;1.00;;;2.90;99.90;;;;;;5047418;28;20037;-86
2022/12/01 01:11:00;;;;;;;0.20;0.20;;;2.90;99.90;;;;;;5031472;28;20127;-85
2022/12/01 01:13:27;;;;;;;0.30;0.30;;;2.80;99.90;;;;;;5030020;28;20039;-85
2022/12/01 01:15:58;;;;;;;0.25;0.25;;;2.90;99.90;;;;;;5049766;28;20472;-86
2022/12/01 01:18:24;;;;;;;0.57;0.55;;;3.00;99.90;;;;;;5064113;28;20575;-85
2022/12/01 01:21:03;;;;;;;0.13;0.13;;;2.90;99.90;;;;;;5031331;28;20037;-86
2022/12/01 01:23:28;;;;;;;0.45;0.45;;;2.80;99.90;;;;;;5048577;28;20093;-85
2022/12/01 01:26:01;;;;;;;0.38;0.38;;;2.70;99.90;;;;;;5062380;28;20762;-86
2022/12/01 01:28:26;;;;;;;0.25;0.25;;;2.80;99.90;;;;;;5050179;28;20047;-86
2022/12/01 01:30:52;;;;;;;0.10;0.10;;;2.70;99.90;;;;;;5049867;28;20483;-88
2022/12/01 01:33:18;;;;;;;0.40;0.40;;;2.70;99.90;;;;;;5031309;28;20479;-85
2022/12/01 01:35:43;;;;;;;0.80;0.80;;;2.70;99.90;;;;;;5049174;28;20695;-86
2022/12/01 01:38:10;;;;;;;0.80;0.40;;;2.70;99.90;;;;;;5049211;28;20033;-86
2022/12/01 01:40:42;;;;;;;0.40;0.40;;;2.70;99.90;;;;;;5031596;28;20253;-86
2022/12/01 01:43:14;;;;;;;0.80;0.80;;;2.80;99.90;;;;;;5031594;28;20079;-85
2022/12/01 01:45:40;;;;;;;0.20;0.20;;;2.60;99.90;;;;;;5038864;28;20036;-85
2022/12/01 01:48:06;;;;;;;0.10;0.10;;;2.50;99.90;;;;;;5030808;28;20033;-86
2022/12/01 01:50:34;;;;;;;0.25;0.25;;;2.50;99.90;;;;;;5063530;28;20519;-84
2022/12/01 01:53:07;;;;;;;0.30;0.30;;;2.50;99.90;;;;;;5049159;28;20037;-86
2022/12/01 01:55:34;;;;;;;0.70;0.57;;;2.50;99.90;;;;;;5029596;28;20044;-87
2022/12/01 01:58:03;;;;;;;0.20;0.20;;;2.30;99.90;;;;;;5030749;28;20055;-85
2022/12/01 02:00:29;;;;;;;0.35;0.35;;;2.40;99.90;;;;;;5048924;28;20397;-85
2022/12/01 02:02:56;;;;;;;0.30;0.30;;;2.40;99.90;;;;;;5048855;28;20051;-87
2022/12/01 02:05:25;;;;;;;0.20;0.20;;;2.40;99.90;;;;;;5048288;28;20629;-84
2022/12/01 02:07:54;;;;;;;0.10;0.10;;;2.30;99.90;;;;;;5027661;28;20037;-84
2022/12/01 02:10:22;;;;;;;0.15;0.15;;;2.30;99.90;;;;;;5048360;28;20036;-83
2022/12/01 02:12:54;;;;;;;0.10;0.10;;;2.30;99.90;;;;;;5030089;28;20033;-83
2022/12/01 02:15:56;;;;;;;0.63;0.63;;;2.30;99.90;;;;;;5047818;28;20071;-84
2022/12/01 02:18:45;;;;;;;1.33;1.23;;;2.30;99.90;;;;;;5047705;28;20764;-84
2022/12/01 02:21:48;;;;;;;0.17;0.17;;;2.30;99.90;;;;;;5058616;28;20032;-84
2022/12/01 02:24:46;;;;;;;0.10;0.10;;;2.40;99.90;;;;;;5035445;28;20037;-85
2022/12/01 02:27:51;;;;;;;0.20;0.20;;;2.40;99.90;;;;;;5048471;28;20025;-83
2022/12/01 02:30:32;;;;;;;0.15;0.15;;;2.30;99.90;;;;;;5013585;28;20069;-81
2022/12/01 02:33:18;;;;;;;0.10;0.10;;;2.20;99.90;;;;;;5046635;28;20048;-83
2022/12/01 02:36:03;;;;;;;0.55;0.55;;;2.30;99.90;;;;;;5048300;28;20462;-84
2022/12/01 02:38:30;;;;;;;0.30;0.30;;;2.30;99.90;;;;;;5029191;28;20063;-82
2022/12/01 02:41:00;;;;;;;0.30;0.30;;;2.20;99.90;;;;;;5034128;28;20036;-85
2022/12/01 02:43:26;;;;;;;0.57;0.57;;;2.30;99.90;;;;;;5030966;28;20056;-86
2022/12/01 02:46:19;;;;;;;0.30;0.30;;;2.30;99.90;;;;;;5048036;28;20696;-87
2022/12/01 02:48:50;;;;;;;0.13;0.13;;;2.20;99.90;;;;;;5046889;28;20032;-87
2022/12/01 02:51:21;;;;;;;0.20;0.20;;;2.20;99.90;;;;;;5029963;28;20036;-86
2022/12/01 02:53:47;;;;;;;0.10;0.10;;;2.20;99.90;;;;;;5048135;28;20036;-87
2022/12/01 02:56:14;;;;;;;0.15;0.15;;;2.20;99.90;;;;;;5032581;28;20049;-88
2022/12/01 02:58:42;;;;;;;0.10;0.10;;;2.30;99.90;;;;;;5048625;28;20021;-90
2022/12/01 03:01:23;;;;;;;1.05;0.63;;;2.60;99.90;;;;;;5030982;28;20025;-87
2022/12/01 03:03:51;;;;;;;0.50;0.50;;;2.50;99.90;;;;;;5047325;28;20035;-89
2022/12/01 03:06:39;;;;;;;1.08;0.55;;;2.40;99.90;;;;;;5054060;28;20033;-92
2022/12/01 03:09:26;;;;;;;0.55;0.55;;;2.60;99.90;;;;;;5034819;28;20100;-88
2022/12/01 03:12:14;;;;;;;0.47;0.47;;;2.60;99.90;;;;;;5031657;28;20396;-87
2022/12/01 03:15:03;;;;;;;0.60;0.57;;;2.60;99.90;;;;;;5029025;28;20033;-87
2022/12/01 03:17:45;;;;;;;4.22;0.90;;;2.60;99.90;;;;;;5030617;28;20048;-85
2022/12/01 03:20:32;;;;;;;0.20;0.20;;;2.50;99.90;;;;;;5048065;28;20090;-87
2022/12/01 03:23:07;;;;;;;1.77;0.95;;;2.50;99.90;;;;;;5052706;28;20033;-86
2022/12/01 03:25:33;;;;;;;0.35;0.35;;;2.40;99.90;;;;;;5046304;28;20025;-86
2022/12/01 03:28:04;;;;;;;2.63;1.20;;;2.40;99.90;;;;;;5028894;28;20663;-86
2022/12/01 03:30:34;;;;;;;0.93;0.52;;;2.30;99.90;;;;;;5046499;28;20029;-87
2022/12/01 03:33:07;;;;;;;0.47;0.47;;;2.60;99.90;;;;;;5046452;28;20090;-88
2022/12/01 03:35:42;;;;;;;0.10;0.10;;;2.30;99.90;;;;;;5028031;28;20735;-87
2022/12/01 03:38:15;;;;;;;0.20;0.20;;;2.20;99.90;;;;;;5028708;28;20033;-86
2022/12/01 03:40:42;;;;;;;4.07;2.28;;;2.30;99.90;;;;;;5047498;28;20108;-89
2022/12/01 03:43:15;;;;;;;1.35;1.02;;;2.20;99.90;;;;;;5046818;28;20033;-88
2022/12/01 03:46:08;;;;;;;0.10;0.10;;;2.10;99.90;;;;;;5029384;28;20032;-91
2022/12/01 03:48:34;;;;;;;0.73;0.73;;;2.10;99.90;;;;;;5047221;28;20064;-87
2022/12/01 03:51:19;;;;;;;0.20;0.20;;;2.10;99.90;;;;;;5046431;28;20758;-83
2022/12/01 03:53:53;;;;;;;0.17;0.17;;;1.90;99.90;;;;;;5044588;28;20033;-83
2022/12/01 03:56:23;;;;;;;0.95;0.90;;;1.90;99.90;;;;;;5045535;28;20064;-83
2022/12/01 03:58:52;;;;;;;4.25;1.60;;;1.80;99.90;;;;;;5045428;28;20033;-82
2022/12/01 04:01:19;;;;;;;0.10;0.10;;;1.90;99.90;;;;;;5046670;28;20017;-82
2022/12/01 04:03:46;;;;;;;0.22;0.22;;;1.90;99.90;;;;;;5045796;28;20076;-87
2022/12/01 04:06:11;;;;;;;0.45;0.45;;;1.90;99.90;;;;;;5029060;28;20116;-85
2022/12/01 04:08:38;;;;;;;0.43;0.43;;;1.80;99.90;;;;;;5040562;28;20124;-84
2022/12/01 04:12:28;;;;;;;0.73;0.73;;;1.80;99.90;;;;;;5046754;28;20108;-82
2022/12/01 04:13:49;;;;;;;0.20;0.20;;;1.80;99.90;;;;;;5046660;28;20041;-84
2022/12/01 04:16:15;;;;;;;0.20;0.20;;;1.80;99.90;;;;;;5046932;28;20284;-84
2022/12/01 04:18:40;;;;;;;0.28;0.28;;;1.90;99.90;;;;;;5056982;28;20676;-83
2022/12/01 04:21:06;;;;;;;0.20;0.20;;;1.90;99.90;;;;;;5046453;28;20029;-84
2022/12/01 04:26:16;;;;;;;0.82;0.82;;;2.10;99.90;;;;;;5046980;28;20044;-84
2022/12/01 04:28:41;;;;;;;2.13;1.08;;;2.10;99.90;;;;;;5059786;28;20029;-83
2022/12/01 04:31:07;;;;;;;0.10;0.10;;;2.10;99.90;;;;;;5048969;28;20033;-85
2022/12/01 04:33:32;;;;;;;0.40;0.40;;;2.20;99.90;;;;;;5064911;28;20040;-84
2022/12/01 04:35:59;;;;;;;0.30;0.30;;;2.40;99.90;;;;;;5051617;28;20074;-85
2022/12/01 04:38:26;;;;;;;0.20;0.20;;;2.40;99.90;;;;;;5050526;28;20033;-84
2022/12/01 04:40:51;;;;;;;0.50;0.50;;;2.30;99.90;;;;;;5049821;28;20044;-85
2022/12/01 04:43:17;;;;;;;0.20;0.20;;;2.20;99.90;;;;;;5049854;28;20021;-84
2022/12/01 04:45:43;;;;;;;0.10;0.10;;;2.40;99.90;;;;;;5050394;28;20120;-83
2022/12/01 04:48:08;;;;;;;0.68;0.68;;;2.40;99.90;;;;;;5050192;28;20122;-86
2022/12/01 04:50:34;;;;;;;0.10;0.10;;;2.20;99.90;;;;;;5049922;28;20052;-84
2022/12/01 04:53:00;;;;;;;0.10;0.10;;;2.30;99.90;;;;;;5065578;28;20044;-87
2022/12/01 04:55:25;;;;;;;0.40;0.40;;;2.20;99.90;;;;;;5053313;28;20658;-84
2022/12/01 04:57:51;;;;;;;0.20;0.20;;;2.20;99.90;;;;;;5050919;28;20048;-84
2022/12/01 05:00:17;;;;;;;0.10;0.10;;;2.20;99.90;;;;;;5032070;28;20029;-84
2022/12/01 05:02:43;;;;;;;0.10;0.10;;;2.30;99.90;;;;;;5049664;28;20560;-85
2022/12/01 05:05:13;;;;;;;0.30;0.30;;;2.20;99.90;;;;;;5028889;28;20037;-85
2022/12/01 05:07:39;;;;;;;0.32;0.32;;;2.10;99.90;;;;;;5030304;28;20040;-85
2022/12/01 05:10:06;;;;;;;0.43;0.43;;;2.00;99.90;;;;;;5047502;28;20059;-86
2022/12/01 05:12:31;;;;;;;0.73;0.73;;;1.80;99.90;;;;;;5032135;28;20590;-85
2022/12/01 05:14:57;;;;;;;0.10;0.10;;;1.90;99.90;;;;;;5048758;28;20029;-86
2022/12/01 05:17:23;;;;;;;0.38;0.38;;;1.70;99.90;;;;;;5030850;28;20047;-84
2022/12/01 05:22:32;;;;;;;0.28;0.28;;;1.60;99.90;;;;;;5050932;28;20036;-88
2022/12/01 05:24:58;;;;;;;2.55;1.40;;;1.70;99.90;;;;;;5043842;28;20029;-90
2022/12/01 05:27:24;;;;;;;0.10;0.10;;;1.60;99.90;;;;;;5033794;28;20033;-88
2022/12/01 05:29:49;;;;;;;0.10;0.10;;;1.50;99.90;;;;;;5042939;28;20033;-91
2022/12/01 05:32:15;;;;;;;0.10;0.10;;;1.40;99.90;;;;;;5031667;28;20108;-86
2022/12/01 05:34:41;;;;;;;0.10;0.10;;;1.40;99.90;;;;;;5048864;28;20043;-84
2022/12/01 05:37:07;;;;;;;0.22;0.22;;;1.30;99.90;;;;;;5046675;28;20103;-90
2022/12/01 05:39:32;;;;;;;0.35;0.35;;;1.30;99.90;;;;;;5064749;28;20039;-87
2022/12/01 05:41:58;;;;;;;7.78;1.38;;;1.40;99.90;;;;;;5048938;28;20032;-86
2022/12/01 05:44:24;;;;;;;0.20;0.20;;;1.40;99.90;;;;;;5037341;28;20029;-82
2022/12/01 05:46:49;;;;;;;0.22;0.22;;;1.20;99.90;;;;;;5048998;28;20033;-81
2022/12/01 05:49:15;;;;;;;1.00;1.00;;;1.30;99.90;;;;;;5048788;28;20025;-80
2022/12/01 05:51:42;;;;;;;0.22;0.22;;;1.20;99.90;;;;;;5047989;28;20033;-79
2022/12/01 05:54:08;;;;;;;0.10;0.10;;;1.10;99.90;;;;;;5048958;28;20043;-80
2022/12/01 05:56:34;;;;;;;0.45;0.45;;;1.10;99.90;;;;;;5049963;28;20802;-80
2022/12/01 05:58:59;;;;;;;0.10;0.10;;;1.10;99.90;;;;;;5031335;28;20033;-77
2022/12/01 06:01:25;;;;;;;0.30;0.30;;;1.20;99.90;;;;;;5048932;28;20031;-81
2022/12/01 06:03:52;;;;;;;0.10;0.10;;;1.10;99.90;;;;;;5030550;28;20834;-80
2022/12/01 06:06:18;;;;;;;0.15;0.15;;;1.20;99.90;;;;;;5049325;28;20025;-78
2022/12/01 06:08:43;;;;;;;0.20;0.20;;;1.20;99.90;;;;;;5047302;28;20041;-79
2022/12/01 06:11:09;;;;;;;0.20;0.20;;;1.20;99.90;;;;;;5047689;28;20107;-79
2022/12/01 06:13:35;;;;;;;0.30;0.30;;;1.20;99.90;;;;;;5047918;28;20048;-82
2022/12/01 06:16:05;;;;;;;0.10;0.10;;;1.20;99.90;;;;;;5047828;28;20033;-80
2022/12/01 06:18:33;;;;;;;0.10;0.10;;;1.30;99.90;;;;;;5047705;28;20033;-80
2022/12/01 06:20:59;;;;;;;0.10;0.10;;;1.20;99.90;;;;;;5047505;28;20033;-78
2022/12/01 06:23:25;;;;;;;0.10;0.10;;;1.30;99.90;;;;;;5029757;28;20029;-78
2022/12/01 06:25:51;;;;;;;0.10;0.10;;;1.30;99.90;;;;;;5043476;28;20644;-83
2022/12/01 06:28:17;;;;;;;0.20;0.20;;;1.20;99.90;;;;;;5047125;28;20082;-82
2022/12/01 06:30:43;;;;;;;2.75;1.38;;;1.20;99.90;;;;;;5027274;28;20108;-90
2022/12/01 06:33:09;;;;;;;0.10;0.10;;;1.40;99.90;;;;;;5050044;28;20159;-87
2022/12/01 06:35:35;;;;;;;0.22;0.22;;;1.50;99.90;;;;;;5039958;28;20187;-87
2022/12/01 06:38:01;;;;;;;0.52;0.52;;;1.60;99.90;;;;;;5032934;28;20040;-89
2022/12/01 06:40:28;;;;;;;0.10;0.10;;;1.70;99.90;;;;;;5029530;28;20029;-89
2022/12/01 06:42:53;;;;;;;0.10;0.10;;;1.90;99.90;;;;;;5047388;28;20037;-85
2022/12/01 06:45:19;;;;;;;0.57;0.57;;;1.90;99.90;;;;;;5027158;28;20092;-83
2022/12/01 06:47:47;;;;;;;0.10;0.10;;;1.90;99.90;;;;;;5045694;28;20602;-86
2022/12/01 06:50:13;;;;;;;0.10;0.10;;;1.90;99.90;;;;;;5033970;28;20032;-89
2022/12/01 06:52:38;;;;;;;0.60;0.60;;;2.00;99.90;;;;;;5060938;28;20032;-86
2022/12/01 06:55:05;;;;;;;0.20;0.20;;;2.10;99.90;;;;;;5046972;28;20511;-86
2022/12/01 06:57:31;;;;;;;0.20;0.20;;;2.20;99.90;;;;;;5047457;28;20031;-85
2022/12/01 06:59:56;;;;;;;0.22;0.22;;;2.20;99.90;;;;;;5046973;28;20131;-85
2022/12/01 07:02:22;;;;;;;2.40;0.73;;;2.20;99.90;;;;;;5047183;28;20104;-87
2022/12/01 07:04:48;;;;;;;0.52;0.52;;;2.30;99.90;;;;;;5063058;28;20464;-86
2022/12/01 07:07:13;;;;;;;0.20;0.20;;;2.40;99.90;;;;;;5048154;28;20552;-86
2022/12/01 07:09:39;;;;;;;0.15;0.15;;;2.30;99.90;;;;;;5041301;28;20029;-86
2022/12/01 07:12:05;;;;;;;0.52;0.52;;;2.40;99.90;;;;;;5047914;28;20065;-86
2022/12/01 07:14:31;;;;;;;0.70;0.70;;;2.60;99.90;;;;;;5048095;28;20180;-85
2022/12/01 07:16:57;;;;;;;0.50;0.50;;;2.70;99.90;;;;;;5047122;28;20128;-86
2022/12/01 07:19:23;;;;;;;0.40;0.40;;;2.70;99.90;;;;;;5048017;28;20025;-85
2022/12/01 07:21:49;;;;;;;0.10;0.10;;;2.70;99.90;;;;;;5047662;28;20039;-84
2022/12/01 07:24:15;;;;;;;0.77;0.77;;;2.60;99.90;;;;;;5047520;28;20502;-86
2022/12/01 07:26:41;;;;;;;0.80;0.80;;;2.70;99.90;;;;;;5048201;28;20465;-88
2022/12/01 07:29:09;;;;;;;0.17;0.17;;;2.60;99.90;;;;;;5031053;28;20598;-84
2022/12/01 07:31:35;;;;;;;0.80;0.75;;;2.40;99.90;;;;;;5047359;28;20115;-85
2022/12/01 07:34:01;;;;;;;1.00;0.65;;;2.40;99.90;;;;;;5029754;28;20036;-86
2022/12/01 07:36:27;;;;;;;1.05;1.00;;;2.30;99.90;;;;;;5053874;28;20043;-84
2022/12/01 07:38:52;;;;;;;0.40;0.40;;;2.40;99.90;;;;;;5032238;28;20038;-87
2022/12/01 07:41:19;;;;;;;0.10;0.10;;;2.40;99.90;;;;;;5061306;28;20576;-86
2022/12/01 07:43:45;;;;;;;0.37;0.37;;;2.40;99.90;;;;;;5030173;28;20130;-86
2022/12/01 07:46:14;;;;;;;0.22;0.22;;;2.40;99.90;;;;;;5029973;28;20041;-86
2022/12/01 07:48:40;;;;;;;8.98;2.05;;;2.50;99.90;;;;;;5029500;28;20033;-86
2022/12/01 07:51:08;;;;;;;0.27;0.27;;;2.40;99.90;;;;;;5062133;28;20030;-87
2022/12/01 07:53:35;;;;;;;1.75;1.55;;;2.40;99.90;;;;;;5055673;28;20033;-87
2022/12/01 07:56:01;;;;;;;0.40;0.40;;;2.40;99.90;;;;;;5048700;28;20040;-86
2022/12/01 07:58:26;;;;;;;0.10;0.10;;;2.30;99.90;;;;;;5047602;28;20068;-86
2022/12/01 08:00:53;;;;;;;0.20;0.20;;;2.30;99.90;;;;;;5047323;28;20551;-86
2022/12/01 08:03:19;;;;;;;0.20;0.20;;;2.40;99.90;;;;;;5047558;28;20028;-87
2022/12/01 08:05:54;;;;;;;0.32;0.32;;;2.50;99.90;;;;;;5033520;28;20068;-86
2022/12/01 08:08:19;;;;;;;0.40;0.40;;;2.60;99.90;;;;;;5033690;28;20059;-86
2022/12/01 08:10:45;;;;;;;0.17;0.17;;;2.70;99.90;;;;;;5054009;28;20643;-86
2022/12/01 08:13:10;;;;;;;0.10;0.10;;;2.80;99.90;;;;;;5050238;28;20594;-86
2022/12/01 08:15:36;;;;;;;0.10;0.10;;;2.90;99.90;;;;;;5033872;28;20064;-87
2022/12/01 08:18:02;;;;;;;0.20;0.20;;;2.90;99.90;;;;;;5053390;28;20052;-86
2022/12/01 08:20:28;;;;;;;0.20;0.20;;;2.90;99.90;;;;;;5051497;28;20063;-87
2022/12/01 08:22:53;;;;;;;0.45;0.45;;;2.90;99.90;;;;;;5033855;28;20021;-86
2022/12/01 08:25:19;;;;;;;0.45;0.45;;;2.80;99.90;;;;;;5051313;28;20858;-86
2022/12/01 08:27:44;;;;;;;1.55;0.82;;;2.80;99.90;;;;;;5050297;28;20021;-87
2022/12/01 08:30:11;;;;;;;0.30;0.30;;;2.90;99.90;;;;;;5050918;28;20029;-86
2022/12/01 08:32:36;;;;;;;0.30;0.30;;;3.10;99.90;;;;;;5051263;28;20018;-87
2022/12/01 08:35:02;;;;;;;0.17;0.17;;;3.50;99.90;;;;;;5051517;28;20066;-87
2022/12/01 08:37:28;;;;;;;0.43;0.43;;;3.40;99.90;;;;;;5062630;28;20067;-87
2022/12/01 08:39:53;;;;;;;0.30;0.30;;;3.10;99.90;;;;;;5034164;28;20025;-88
2022/12/01 08:42:20;;;;;;;0.22;0.22;;;3.00;99.90;;;;;;5033973;28;20041;-88
2022/12/01 08:44:45;;;;;;;0.60;0.60;;;3.00;99.90;;;;;;5064080;28;20032;-87
2022/12/01 08:47:11;;;;;;;0.82;0.82;;;3.20;99.90;;;;;;5033408;28;20397;-88
2022/12/01 08:49:36;;;;;;;0.32;0.32;;;3.40;99.90;;;;;;5033920;28;20033;-87
2022/12/01 08:52:02;;;;;;;0.30;0.30;;;3.70;99.90;;;;;;5051602;28;20025;-88
2022/12/01 08:54:28;;;;;;;0.20;0.20;;;3.90;99.90;;;;;;5033374;28;20037;-87
2022/12/01 08:56:54;;;;;;;0.10;0.10;;;3.80;99.90;;;;;;5063329;28;20091;-88
2022/12/01 08:59:19;;;;;;;1.20;1.10;;;4.10;99.90;;;;;;5033524;28;20079;-87
2022/12/01 09:01:51;;;;;;;0.10;0.10;;;4.40;99.90;;;;;;5033241;28;20821;-87
2022/12/01 09:04:22;;;;;;;0.17;0.17;;;4.20;99.90;;;;;;5032992;28;20029;-88
2022/12/01 09:06:49;;;;;;;0.25;0.25;;;4.80;99.90;;;;;;5033207;28;20036;-88
2022/12/01 09:09:24;;;;;;;0.40;0.40;;;5.30;99.90;;;;;;5032936;28;20428;-87
2022/12/01 09:11:53;;;;;;;0.52;0.52;;;4.90;99.90;;;;;;5037740;28;20029;-88
2022/12/01 09:14:20;;;;;;;0.80;0.80;;;5.10;99.90;;;;;;5061398;28;20029;-88
2022/12/01 09:16:48;;;;;;;0.17;0.17;;;5.50;99.90;;;;;;5055263;28;20088;-87
2022/12/01 09:19:15;;;;;;;0.20;0.20;;;5.20;99.90;;;;;;5035682;28;20682;-88
2022/12/01 09:21:42;;;;;;;0.30;0.30;;;5.40;99.90;;;;;;5051708;28;20025;-89
2022/12/01 09:24:10;;;;;;;0.28;0.28;;;5.30;99.90;;;;;;5035924;28;20446;-88
2022/12/01 09:26:35;;;;;;;0.60;0.60;;;5.00;99.90;;;;;;5036047;28;20036;-90
2022/12/01 09:29:05;;;;;;;0.10;0.10;;;5.10;99.90;;;;;;5035150;28;20025;-89
2022/12/01 09:31:31;;;;;;;0.32;0.32;;;5.10;99.90;;;;;;5034033;28;20036;-88
2022/12/01 09:34:00;;;;;;;0.75;0.75;;;5.00;99.90;;;;;;5035078;28;20786;-88
2022/12/01 09:36:28;;;;;;;0.13;0.13;;;4.80;99.90;;;;;;5035179;28;20422;-88
2022/12/01 09:38:54;;;;;;;0.20;0.20;;;4.90;99.90;;;;;;5039958;28;20074;-89
2022/12/01 09:41:25;;;;;;;0.20;0.20;;;4.80;99.90;;;;;;5044199;28;20029;-89
2022/12/01 09:44:14;;;;;;;0.43;0.43;;;4.80;99.90;;;;;;5053906;28;20074;-90
2022/12/01 09:46:48;;;;;;;0.93;0.75;;;4.70;99.90;;;;;;5041094;28;20038;-90
2022/12/01 09:49:43;;;;;;;0.70;0.70;;;4.50;99.90;;;;;;5035395;28;20029;-89
2022/12/01 09:52:14;;;;;;;0.20;0.20;;;4.50;99.90;;;;;;5041254;28;20029;-89
2022/12/01 09:54:40;;;;;;;0.20;0.20;;;4.40;99.90;;;;;;5040586;28;20032;-89
2022/12/01 09:57:10;;;;;;;0.30;0.30;;;4.40;99.90;;;;;;5032189;28;20057;-89
2022/12/01 09:59:40;;;;;;;0.10;0.10;;;4.30;99.90;;;;;;5032927;28;20053;-89
2022/12/01 10:02:38;;;;;;;1.50;1.40;;;4.50;99.90;;;;;;5032433;28;20085;-90
2022/12/01 10:05:11;;;;;;;0.63;0.63;;;4.60;99.90;;;;;;5043757;28;20037;-89
2022/12/01 10:07:43;;;;;;;0.17;0.17;;;4.80;99.90;;;;;;5041472;28;20029;-90
2022/12/01 10:10:26;;;;;;;0.55;0.45;;;5.10;99.90;;;;;;5032677;28;20052;-91
2022/12/01 10:12:52;;;;;;;1.05;1.05;;;5.10;99.90;;;;;;5033997;28;20025;-89
2022/12/01 10:15:44;;;;;;;1.65;1.10;;;5.10;99.90;;;;;;5032698;28;20021;-89
2022/12/01 10:18:39;;;;;;;0.13;0.13;;;5.10;99.90;;;;;;5031873;28;20576;-89
2022/12/01 10:21:04;;;;;;;0.20;0.20;;;5.20;99.90;;;;;;5032304;28;20034;-90
2022/12/01 10:23:49;;;;;;;0.90;0.90;;;5.20;99.90;;;;;;5032495;28;20092;-89
2022/12/01 10:26:31;;;;;;;0.52;0.52;;;5.30;99.90;;;;;;5036294;28;20382;-88
2022/12/01 10:29:12;;;;;;;0.25;0.25;;;5.30;99.90;;;;;;5037578;28;20029;-90
2022/12/01 10:31:56;;;;;;;0.55;0.55;;;5.20;99.90;;;;;;5032242;28;20120;-89
2022/12/01 10:34:25;;;;;;;0.47;0.47;;;5.20;99.90;;;;;;5032405;28;20030;-91
2022/12/01 10:36:51;;;;;;;0.60;0.60;;;5.30;99.90;;;;;;5032591;28;20030;-91
2022/12/01 10:39:27;;;;;;;0.32;0.32;;;5.50;99.90;;;;;;5033807;28;20577;-91
2022/12/01 10:42:01;;;;;;;0.67;0.67;;;5.60;99.90;;;;;;5045175;28;20095;-91
2022/12/01 10:44:27;;;;;;;0.20;0.20;;;5.70;99.90;;;;;;5042217;28;20033;-90
2022/12/01 10:46:55;;;;;;;1.80;1.45;;;5.90;99.90;;;;;;5033733;28;20034;-90
2022/12/01 10:49:39;;;;;;;0.60;0.60;;;5.90;99.90;;;;;;5032119;28;20763;-90
2022/12/01 10:52:06;;;;;;;0.50;0.50;;;5.90;99.90;;;;;;5063850;28;20400;-90
2022/12/01 10:54:38;;;;;;;0.32;0.32;;;5.90;99.90;;;;;;5032716;28;20038;-91
2022/12/01 10:57:12;;;;;;;1.08;1.02;;;5.90;99.90;;;;;;5031507;28;20045;-90
2022/12/01 10:59:46;;;;;;;0.50;0.50;;;5.90;99.90;;;;;;5031274;28;20040;-90
2022/12/01 11:02:20;;;;;;;0.52;0.52;;;6.10;99.90;;;;;;5051682;28;20925;-91
2022/12/01 11:04:51;;;;;;;0.15;0.15;;;6.30;99.90;;;;;;5031457;28;20100;-91
2022/12/01 11:07:31;;;;;;;0.15;0.15;;;6.40;99.90;;;;;;5032142;28;20025;-91
2022/12/01 11:09:56;;;;;;;0.20;0.20;;;6.50;99.90;;;;;;5028854;28;20504;-91
2022/12/01 11:12:22;;;;;;;0.20;0.20;;;6.60;99.90;;;;;;5032360;28;20025;-90
2022/12/01 11:14:51;;;;;;;0.17;0.17;;;6.70;99.90;;;;;;5030832;28;20505;-90
2022/12/01 11:17:34;;;;;;;1.08;1.08;;;6.80;99.90;;;;;;5031343;28;20595;-91
2022/12/01 11:20:30;;;;;;;0.10;0.10;;;7.00;99.90;;;;;;5031463;28;20030;-91
2022/12/01 11:23:25;;;;;;;0.25;0.25;;;7.20;99.90;;;;;;5036374;28;20053;-91
2022/12/01 11:25:57;;;;;;;1.05;1.05;;;7.20;99.90;;;;;;5019589;28;20071;-91
2022/12/01 11:28:23;;;;;;;0.35;0.32;;;7.20;99.90;;;;;;5034586;28;20064;-88
2022/12/01 11:30:59;;;;;;;0.30;0.30;;;7.30;99.90;;;;;;5030887;28;20080;-90
2022/12/01 11:33:26;;;;;;;0.10;0.10;;;7.30;99.90;;;;;;5030608;28;20107;-92
2022/12/01 11:35:52;;;;;;;0.28;0.28;;;7.30;99.90;;;;;;5030234;28;20307;-89
2022/12/01 11:38:28;;;;;;;0.32;0.32;;;7.40;99.90;;;;;;5031180;28;20026;-90
2022/12/01 11:40:55;;;;;;;0.55;0.55;;;7.30;99.90;;;;;;5030320;28;20072;-89
2022/12/01 11:43:28;;;;;;;0.35;0.35;;;7.50;99.90;;;;;;5030518;28;20064;-89
2022/12/01 11:45:57;;;;;;;0.95;0.95;;;7.60;99.90;;;;;;5030322;28;20036;-90
2022/12/01 11:48:28;;;;;;;0.10;0.10;;;7.50;99.90;;;;;;5029469;28;20030;-88
2022/12/01 11:51:26;;;;;;;0.40;0.40;;;7.60;99.90;;;;;;5031174;28;20107;-87
2022/12/01 11:54:24;;;;;;;0.20;0.20;;;7.60;99.90;;;;;;5045887;28;20883;-88
2022/12/01 11:56:52;;;;;;;0.10;0.10;;;7.60;99.90;;;;;;5041951;28;20612;-87
2022/12/01 11:59:26;;;;;;;4.22;2.00;;;7.50;99.90;;;;;;5037016;28;20048;-88
2022/12/01 12:02:20;;;;;;;0.40;0.40;;;7.60;99.90;;;;;;5030528;28;20064;-89
2022/12/01 12:05:04;;;;;;;0.40;0.40;;;7.70;99.90;;;;;;5037714;28;20100;-89
2022/12/01 12:08:04;;;;;;;0.63;0.63;;;7.80;99.90;;;;;;5029168;28;20051;-89
2022/12/01 12:10:48;;;;;;;0.20;0.20;;;7.80;99.90;;;;;;5022019;28;20049;-88
2022/12/01 12:13:32;;;;;;;0.30;0.30;;;7.80;99.90;;;;;;5030307;28;20061;-89
2022/12/01 12:16:10;;;;;;;0.17;0.17;;;7.70;99.90;;;;;;5028981;28;20033;-90
2022/12/01 12:19:05;;;;;;;2.15;1.23;;;7.80;99.90;;;;;;5029043;28;20034;-88
2022/12/01 12:21:36;;;;;;;0.38;0.38;;;7.80;99.90;;;;;;5042536;28;20079;-88
2022/12/01 12:24:30;;;;;;;3.03;0.80;;;7.90;99.90;;;;;;5028653;28;20821;-88
2022/12/01 12:27:21;;;;;;;0.50;0.50;;;7.80;99.90;;;;;;5051505;28;20057;-89
2022/12/01 12:29:56;;;;;;;0.70;0.65;;;7.80;99.90;;;;;;5029768;28;20033;-88
2022/12/01 12:32:25;;;;;;;0.10;0.10;;;7.80;99.90;;;;;;5028535;28;20034;-89
2022/12/01 12:35:03;;;;;;;0.17;0.17;;;7.80;99.90;;;;;;5028725;28;20029;-88
2022/12/01 12:37:49;;;;;;;0.20;0.20;;;7.80;99.90;;;;;;5038245;28;20029;-89
2022/12/01 12:40:26;;;;;;;;;;;7.90;99.90;;;;;;5042656;28;20034;-88
2022/12/01 12:43:20;;;;;;;0.40;0.40;;;8.00;99.90;;;;;;5028429;28;20429;-87
2022/12/01 12:46:06;;;;;;;0.40;0.40;;;8.00;99.90;;;;;;5048134;28;20508;-87
2022/12/01 12:48:38;;;;;;;1.13;1.08;;;8.00;99.90;;;;;;5027507;28;20097;-87
2022/12/01 12:51:15;;;;;;;0.20;0.20;;;8.00;99.90;;;;;;5028225;28;20048;-87
2022/12/01 12:53:50;;;;;;;0.40;0.40;;;7.90;99.90;;;;;;5045915;28;20025;-88
2022/12/01 12:56:18;;;;;;;0.20;0.20;;;7.90;99.90;;;;;;5041564;28;20051;-87
2022/12/01 12:59:10;;;;;;;0.43;0.43;;;7.90;99.90;;;;;;5042287;28;20025;-88
2022/12/01 13:01:40;;;;;;;0.38;0.30;;;7.80;99.90;;;;;;5034061;28;20041;-88
2022/12/01 13:04:23;;;;;;;0.10;0.10;;;7.70;99.90;;;;;;5037600;28;20025;-87
2022/12/01 13:06:59;;;;;;;0.10;0.10;;;7.60;99.90;;;;;;5031051;28;20037;-89
2022/12/01 13:09:39;;;;;;;0.40;0.40;;;7.70;99.90;;;;;;5028584;28;20033;-87
2022/12/01 13:12:14;;;;;;;2.15;0.95;;;7.70;99.90;;;;;;5039873;28;20040;-88
2022/12/01 13:14:51;;;;;;;1.90;0.88;;;7.70;99.90;;;;;;5042013;28;20115;-88
2022/12/01 13:17:16;;;;;;;0.30;0.30;;;7.60;99.90;;;;;;5032349;28;20037;-88
2022/12/01 13:19:44;;;;;;;0.43;0.43;;;7.70;99.90;;;;;;5030802;28;20033;-87
2022/12/01 13:22:12;;;;;;;0.65;0.52;;;7.70;99.90;;;;;;5031293;28;20028;-88
2022/12/01 13:24:38;;;;;;;0.20;0.20;;;7.70;99.90;;;;;;5032029;28;20028;-88